sensor_id;sensor_type;location;lat;lon;timestamp;P1;durP1;ratioP1;P2;durP2;ratioP2
41817;SDS011;27493;51.730;5.294;2023-03-20T00:01:43;21.03;;;9.60;;
41817;SDS011;27493;51.730;5.294;2023-03-20T00:04:09;19.97;;;9.67;;
41817;SDS011;27493;51.730;5.294;2023-03-20T00:06:34;21.23;;;8.77;;
41817;SDS011;27493;51.730;5.294;2023-03-20T00:09:00;16.80;;;8.23;;
41817;SDS011;27493;51.730;5.294;2023-03-20T00:13:53;19.43;;;9.13;;
41817;SDS011;27493;51.730;5.294;2023-03-20T00:16:19;18.20;;;8.30;;
41817;SDS011;27493;51.730;5.294;2023-03-20T00:18:45;15.97;;;8.33;;
41817;SDS011;27493;51.730;5.294;2023-03-20T00:21:17;17.73;;;8.67;;
41817;SDS011;27493;51.730;5.294;2023-03-20T00:23:42;20.13;;;8.70;;
41817;SDS011;27493;51.730;5.294;2023-03-20T00:26:10;22.33;;;8.33;;
41817;SDS011;27493;51.730;5.294;2023-03-20T00:28:37;24.23;;;8.33;;
41817;SDS011;27493;51.730;5.294;2023-03-20T00:31:05;14.97;;;7.90;;
41817;SDS011;27493;51.730;5.294;2023-03-20T00:33:37;14.40;;;8.17;;
41817;SDS011;27493;51.730;5.294;2023-03-20T00:36:02;23.73;;;8.87;;
41817;SDS011;27493;51.730;5.294;2023-03-20T00:38:30;16.73;;;7.67;;
41817;SDS011;27493;51.730;5.294;2023-03-20T00:40:55;19.63;;;8.13;;
41817;SDS011;27493;51.730;5.294;2023-03-20T00:43:20;14.07;;;8.00;;
41817;SDS011;27493;51.730;5.294;2023-03-20T00:45:46;17.53;;;8.47;;
41817;SDS011;27493;51.730;5.294;2023-03-20T00:48:14;20.87;;;7.70;;
41817;SDS011;27493;51.730;5.294;2023-03-20T00:50:40;19.00;;;8.17;;
41817;SDS011;27493;51.730;5.294;2023-03-20T00:53:08;17.83;;;7.57;;
41817;SDS011;27493;51.730;5.294;2023-03-20T00:55:33;17.60;;;8.30;;
41817;SDS011;27493;51.730;5.294;2023-03-20T00:58:02;13.73;;;7.53;;
41817;SDS011;27493;51.730;5.294;2023-03-20T01:00:38;19.40;;;7.93;;
41817;SDS011;27493;51.730;5.294;2023-03-20T01:03:20;17.60;;;8.13;;
41817;SDS011;27493;51.730;5.294;2023-03-20T01:05:46;16.73;;;8.10;;
41817;SDS011;27493;51.730;5.294;2023-03-20T01:10:40;15.50;;;8.60;;
41817;SDS011;27493;51.730;5.294;2023-03-20T01:13:05;19.63;;;8.80;;
41817;SDS011;27493;51.730;5.294;2023-03-20T01:15:37;13.73;;;8.13;;
41817;SDS011;27493;51.730;5.294;2023-03-20T01:18:02;17.57;;;8.70;;
41817;SDS011;27493;51.730;5.294;2023-03-20T01:20:28;15.27;;;8.30;;
41817;SDS011;27493;51.730;5.294;2023-03-20T01:22:54;23.67;;;8.40;;
41817;SDS011;27493;51.730;5.294;2023-03-20T01:25:20;15.37;;;7.90;;
41817;SDS011;27493;51.730;5.294;2023-03-20T01:27:47;17.23;;;9.00;;
41817;SDS011;27493;51.730;5.294;2023-03-20T01:30:15;19.40;;;9.20;;
41817;SDS011;27493;51.730;5.294;2023-03-20T01:32:40;20.67;;;10.13;;
41817;SDS011;27493;51.730;5.294;2023-03-20T01:35:10;18.73;;;9.43;;
41817;SDS011;27493;51.730;5.294;2023-03-20T01:37:35;18.73;;;8.63;;
41817;SDS011;27493;51.730;5.294;2023-03-20T01:40:01;18.43;;;8.93;;
41817;SDS011;27493;51.730;5.294;2023-03-20T01:42:26;18.43;;;9.00;;
41817;SDS011;27493;51.730;5.294;2023-03-20T01:44:51;21.03;;;9.07;;
41817;SDS011;27493;51.730;5.294;2023-03-20T01:47:18;23.17;;;10.33;;
41817;SDS011;27493;51.730;5.294;2023-03-20T01:52:28;17.67;;;8.63;;
41817;SDS011;27493;51.730;5.294;2023-03-20T01:54:53;19.77;;;9.77;;
41817;SDS011;27493;51.730;5.294;2023-03-20T01:57:19;18.77;;;8.90;;
41817;SDS011;27493;51.730;5.294;2023-03-20T01:59:54;19.00;;;9.30;;
41817;SDS011;27493;51.730;5.294;2023-03-20T02:02:24;22.10;;;9.83;;
41817;SDS011;27493;51.730;5.294;2023-03-20T02:04:51;18.90;;;8.87;;
41817;SDS011;27493;51.730;5.294;2023-03-20T02:07:17;17.37;;;8.93;;
41817;SDS011;27493;51.730;5.294;2023-03-20T02:09:45;17.20;;;9.53;;
41817;SDS011;27493;51.730;5.294;2023-03-20T02:12:10;18.90;;;9.67;;
41817;SDS011;27493;51.730;5.294;2023-03-20T02:14:35;21.60;;;10.37;;
41817;SDS011;27493;51.730;5.294;2023-03-20T02:17:02;22.30;;;10.27;;
41817;SDS011;27493;51.730;5.294;2023-03-20T02:19:30;21.70;;;10.80;;
41817;SDS011;27493;51.730;5.294;2023-03-20T02:27:40;22.40;;;11.40;;
41817;SDS011;27493;51.730;5.294;2023-03-20T02:32:48;23.87;;;11.73;;
41817;SDS011;27493;51.730;5.294;2023-03-20T02:48:46;26.13;;;13.30;;
41817;SDS011;27493;51.730;5.294;2023-03-20T02:51:19;28.57;;;13.43;;
41817;SDS011;27493;51.730;5.294;2023-03-20T03:01:27;25.40;;;13.43;;
41817;SDS011;27493;51.730;5.294;2023-03-20T03:03:55;23.63;;;13.27;;
41817;SDS011;27493;51.730;5.294;2023-03-20T03:06:31;24.33;;;13.87;;
41817;SDS011;27493;51.730;5.294;2023-03-20T03:09:13;25.03;;;14.30;;
41817;SDS011;27493;51.730;5.294;2023-03-20T03:11:40;29.13;;;14.17;;
41817;SDS011;27493;51.730;5.294;2023-03-20T03:14:09;26.10;;;13.53;;
41817;SDS011;27493;51.730;5.294;2023-03-20T03:16:38;24.63;;;13.40;;
41817;SDS011;27493;51.730;5.294;2023-03-20T03:19:07;30.10;;;14.30;;
41817;SDS011;27493;51.730;5.294;2023-03-20T03:21:33;27.77;;;14.00;;
41817;SDS011;27493;51.730;5.294;2023-03-20T03:23:59;25.13;;;12.77;;
41817;SDS011;27493;51.730;5.294;2023-03-20T03:26:26;23.03;;;13.40;;
41817;SDS011;27493;51.730;5.294;2023-03-20T03:28:56;22.93;;;13.07;;
41817;SDS011;27493;51.730;5.294;2023-03-20T03:31:22;23.33;;;13.27;;
41817;SDS011;27493;51.730;5.294;2023-03-20T03:33:52;26.63;;;12.53;;
41817;SDS011;27493;51.730;5.294;2023-03-20T03:36:31;24.27;;;13.17;;
41817;SDS011;27493;51.730;5.294;2023-03-20T03:46:44;23.67;;;12.57;;
41817;SDS011;27493;51.730;5.294;2023-03-20T03:49:12;20.83;;;11.90;;
41817;SDS011;27493;51.730;5.294;2023-03-20T03:51:40;25.77;;;11.37;;
41817;SDS011;27493;51.730;5.294;2023-03-20T03:54:14;19.60;;;11.27;;
41817;SDS011;27493;51.730;5.294;2023-03-20T03:56:41;19.60;;;11.00;;
41817;SDS011;27493;51.730;5.294;2023-03-20T03:59:12;21.63;;;11.17;;
41817;SDS011;27493;51.730;5.294;2023-03-20T04:01:38;18.13;;;11.30;;
41817;SDS011;27493;51.730;5.294;2023-03-20T04:04:08;20.33;;;10.73;;
41817;SDS011;27493;51.730;5.294;2023-03-20T04:06:34;18.80;;;10.60;;
41817;SDS011;27493;51.730;5.294;2023-03-20T04:08:59;21.37;;;10.73;;
41817;SDS011;27493;51.730;5.294;2023-03-20T04:11:25;21.57;;;10.63;;
41817;SDS011;27493;51.730;5.294;2023-03-20T04:13:51;21.63;;;10.50;;
41817;SDS011;27493;51.730;5.294;2023-03-20T04:16:17;20.97;;;11.30;;
41817;SDS011;27493;51.730;5.294;2023-03-20T04:18:42;18.07;;;10.17;;
41817;SDS011;27493;51.730;5.294;2023-03-20T04:21:07;20.87;;;10.87;;
41817;SDS011;27493;51.730;5.294;2023-03-20T04:23:33;19.27;;;10.07;;
41817;SDS011;27493;51.730;5.294;2023-03-20T04:25:58;19.00;;;9.93;;
41817;SDS011;27493;51.730;5.294;2023-03-20T04:28:24;17.20;;;9.43;;
41817;SDS011;27493;51.730;5.294;2023-03-20T04:30:53;18.70;;;10.17;;
41817;SDS011;27493;51.730;5.294;2023-03-20T04:33:18;18.93;;;9.93;;
41817;SDS011;27493;51.730;5.294;2023-03-20T04:35:43;18.47;;;10.20;;
41817;SDS011;27493;51.730;5.294;2023-03-20T04:38:08;19.80;;;10.43;;
41817;SDS011;27493;51.730;5.294;2023-03-20T04:40:34;20.20;;;10.87;;
41817;SDS011;27493;51.730;5.294;2023-03-20T04:42:59;18.13;;;10.67;;
41817;SDS011;27493;51.730;5.294;2023-03-20T04:45:24;21.40;;;10.47;;
41817;SDS011;27493;51.730;5.294;2023-03-20T04:47:49;18.60;;;9.90;;
41817;SDS011;27493;51.730;5.294;2023-03-20T04:50:15;24.07;;;10.80;;
41817;SDS011;27493;51.730;5.294;2023-03-20T04:52:40;23.27;;;10.50;;
41817;SDS011;27493;51.730;5.294;2023-03-20T04:55:05;22.90;;;10.80;;
41817;SDS011;27493;51.730;5.294;2023-03-20T04:57:30;19.07;;;10.87;;
41817;SDS011;27493;51.730;5.294;2023-03-20T04:59:56;17.93;;;10.80;;
41817;SDS011;27493;51.730;5.294;2023-03-20T05:02:22;22.27;;;11.57;;
41817;SDS011;27493;51.730;5.294;2023-03-20T05:04:47;17.70;;;10.53;;
41817;SDS011;27493;51.730;5.294;2023-03-20T05:07:12;18.67;;;10.50;;
41817;SDS011;27493;51.730;5.294;2023-03-20T05:09:37;24.63;;;11.47;;
41817;SDS011;27493;51.730;5.294;2023-03-20T05:12:03;17.27;;;10.73;;
41817;SDS011;27493;51.730;5.294;2023-03-20T05:14:28;22.83;;;12.03;;
41817;SDS011;27493;51.730;5.294;2023-03-20T05:16:53;21.10;;;11.23;;
41817;SDS011;27493;51.730;5.294;2023-03-20T05:19:18;17.27;;;10.27;;
41817;SDS011;27493;51.730;5.294;2023-03-20T05:21:43;22.03;;;11.07;;
41817;SDS011;27493;51.730;5.294;2023-03-20T05:24:09;20.03;;;10.93;;
41817;SDS011;27493;51.730;5.294;2023-03-20T05:26:34;19.80;;;10.80;;
41817;SDS011;27493;51.730;5.294;2023-03-20T05:29:00;23.60;;;11.30;;
41817;SDS011;27493;51.730;5.294;2023-03-20T05:31:25;19.63;;;10.60;;
41817;SDS011;27493;51.730;5.294;2023-03-20T05:33:50;22.33;;;11.30;;
41817;SDS011;27493;51.730;5.294;2023-03-20T05:36:15;18.10;;;11.07;;
41817;SDS011;27493;51.730;5.294;2023-03-20T05:38:41;18.00;;;11.03;;
41817;SDS011;27493;51.730;5.294;2023-03-20T05:41:06;23.50;;;10.90;;
41817;SDS011;27493;51.730;5.294;2023-03-20T05:43:31;18.37;;;10.63;;
41817;SDS011;27493;51.730;5.294;2023-03-20T05:45:56;19.57;;;10.97;;
41817;SDS011;27493;51.730;5.294;2023-03-20T05:48:22;20.50;;;11.73;;
41817;SDS011;27493;51.730;5.294;2023-03-20T05:50:47;23.40;;;11.63;;
41817;SDS011;27493;51.730;5.294;2023-03-20T05:53:12;25.20;;;11.33;;
41817;SDS011;27493;51.730;5.294;2023-03-20T05:55:37;22.83;;;10.70;;
41817;SDS011;27493;51.730;5.294;2023-03-20T05:58:03;23.17;;;12.20;;
41817;SDS011;27493;51.730;5.294;2023-03-20T06:00:29;19.93;;;11.30;;
41817;SDS011;27493;51.730;5.294;2023-03-20T06:02:54;19.90;;;10.77;;
41817;SDS011;27493;51.730;5.294;2023-03-20T06:05:20;19.87;;;10.97;;
41817;SDS011;27493;51.730;5.294;2023-03-20T06:07:45;20.17;;;11.30;;
41817;SDS011;27493;51.730;5.294;2023-03-20T06:10:10;20.13;;;10.50;;
41817;SDS011;27493;51.730;5.294;2023-03-20T06:12:35;20.57;;;10.93;;
41817;SDS011;27493;51.730;5.294;2023-03-20T06:15:00;22.97;;;11.60;;
41817;SDS011;27493;51.730;5.294;2023-03-20T06:17:26;21.57;;;10.80;;
41817;SDS011;27493;51.730;5.294;2023-03-20T06:19:51;22.30;;;10.93;;
41817;SDS011;27493;51.730;5.294;2023-03-20T06:22:16;18.63;;;10.93;;
41817;SDS011;27493;51.730;5.294;2023-03-20T06:24:41;22.90;;;11.60;;
41817;SDS011;27493;51.730;5.294;2023-03-20T06:27:07;23.23;;;10.23;;
41817;SDS011;27493;51.730;5.294;2023-03-20T06:29:32;21.27;;;10.83;;
41817;SDS011;27493;51.730;5.294;2023-03-20T06:31:57;19.97;;;11.23;;
41817;SDS011;27493;51.730;5.294;2023-03-20T06:34:23;21.40;;;10.73;;
41817;SDS011;27493;51.730;5.294;2023-03-20T06:36:48;25.37;;;11.13;;
41817;SDS011;27493;51.730;5.294;2023-03-20T06:39:13;20.10;;;10.60;;
41817;SDS011;27493;51.730;5.294;2023-03-20T06:41:38;21.43;;;11.20;;
41817;SDS011;27493;51.730;5.294;2023-03-20T06:44:04;22.93;;;10.43;;
41817;SDS011;27493;51.730;5.294;2023-03-20T06:46:29;18.47;;;10.07;;
41817;SDS011;27493;51.730;5.294;2023-03-20T06:48:54;19.50;;;10.03;;
41817;SDS011;27493;51.730;5.294;2023-03-20T06:51:19;21.20;;;10.43;;
41817;SDS011;27493;51.730;5.294;2023-03-20T06:53:45;21.57;;;10.80;;
41817;SDS011;27493;51.730;5.294;2023-03-20T06:56:10;23.30;;;11.43;;
41817;SDS011;27493;51.730;5.294;2023-03-20T06:58:36;20.73;;;10.47;;
41817;SDS011;27493;51.730;5.294;2023-03-20T07:01:01;19.57;;;9.67;;
41817;SDS011;27493;51.730;5.294;2023-03-20T07:03:26;18.43;;;10.37;;
41817;SDS011;27493;51.730;5.294;2023-03-20T07:05:52;19.07;;;9.50;;
41817;SDS011;27493;51.730;5.294;2023-03-20T07:08:17;19.03;;;9.73;;
41817;SDS011;27493;51.730;5.294;2023-03-20T07:10:42;21.20;;;10.43;;
41817;SDS011;27493;51.730;5.294;2023-03-20T07:13:08;17.03;;;9.43;;
41817;SDS011;27493;51.730;5.294;2023-03-20T07:15:34;19.53;;;9.57;;
41817;SDS011;27493;51.730;5.294;2023-03-20T07:17:59;22.70;;;9.87;;
41817;SDS011;27493;51.730;5.294;2023-03-20T07:20:25;17.50;;;9.30;;
41817;SDS011;27493;51.730;5.294;2023-03-20T07:22:50;16.90;;;9.10;;
41817;SDS011;27493;51.730;5.294;2023-03-20T07:25:15;22.13;;;10.00;;
41817;SDS011;27493;51.730;5.294;2023-03-20T07:27:40;19.07;;;10.17;;
41817;SDS011;27493;51.730;5.294;2023-03-20T07:30:07;19.70;;;9.37;;
41817;SDS011;27493;51.730;5.294;2023-03-20T07:32:32;20.00;;;9.63;;
41817;SDS011;27493;51.730;5.294;2023-03-20T07:34:58;18.07;;;8.93;;
41817;SDS011;27493;51.730;5.294;2023-03-20T07:37:24;19.23;;;8.97;;
41817;SDS011;27493;51.730;5.294;2023-03-20T07:39:49;18.43;;;8.97;;
41817;SDS011;27493;51.730;5.294;2023-03-20T07:42:14;16.37;;;8.63;;
41817;SDS011;27493;51.730;5.294;2023-03-20T07:44:40;18.77;;;8.27;;
41817;SDS011;27493;51.730;5.294;2023-03-20T07:47:05;20.80;;;9.03;;
41817;SDS011;27493;51.730;5.294;2023-03-20T07:49:31;21.73;;;8.77;;
41817;SDS011;27493;51.730;5.294;2023-03-20T07:51:56;18.33;;;8.77;;
41817;SDS011;27493;51.730;5.294;2023-03-20T07:54:21;12.83;;;8.23;;
41817;SDS011;27493;51.730;5.294;2023-03-20T07:56:47;13.67;;;8.10;;
41817;SDS011;27493;51.730;5.294;2023-03-20T07:59:12;15.17;;;7.93;;
41817;SDS011;27493;51.730;5.294;2023-03-20T08:01:37;18.97;;;7.23;;
41817;SDS011;27493;51.730;5.294;2023-03-20T08:04:03;15.80;;;8.33;;
41817;SDS011;27493;51.730;5.294;2023-03-20T08:06:28;23.67;;;8.33;;
41817;SDS011;27493;51.730;5.294;2023-03-20T08:08:53;17.90;;;7.47;;
41817;SDS011;27493;51.730;5.294;2023-03-20T08:11:18;15.13;;;7.50;;
41817;SDS011;27493;51.730;5.294;2023-03-20T08:13:45;17.07;;;8.00;;
41817;SDS011;27493;51.730;5.294;2023-03-20T08:16:10;19.07;;;7.90;;
41817;SDS011;27493;51.730;5.294;2023-03-20T08:18:36;16.27;;;7.20;;
41817;SDS011;27493;51.730;5.294;2023-03-20T08:21:01;14.83;;;7.90;;
41817;SDS011;27493;51.730;5.294;2023-03-20T08:23:26;15.13;;;7.73;;
41817;SDS011;27493;51.730;5.294;2023-03-20T08:25:52;19.57;;;8.33;;
41817;SDS011;27493;51.730;5.294;2023-03-20T08:28:18;16.20;;;7.43;;
41817;SDS011;27493;51.730;5.294;2023-03-20T08:30:43;12.77;;;7.00;;
41817;SDS011;27493;51.730;5.294;2023-03-20T08:33:09;16.70;;;7.43;;
41817;SDS011;27493;51.730;5.294;2023-03-20T08:35:34;14.63;;;6.60;;
41817;SDS011;27493;51.730;5.294;2023-03-20T08:38:00;18.27;;;7.20;;
41817;SDS011;27493;51.730;5.294;2023-03-20T08:40:25;21.37;;;7.00;;
41817;SDS011;27493;51.730;5.294;2023-03-20T08:42:50;15.87;;;6.87;;
41817;SDS011;27493;51.730;5.294;2023-03-20T08:45:15;11.63;;;6.43;;
41817;SDS011;27493;51.730;5.294;2023-03-20T08:47:41;17.63;;;7.43;;
41817;SDS011;27493;51.730;5.294;2023-03-20T08:50:06;14.47;;;7.03;;
41817;SDS011;27493;51.730;5.294;2023-03-20T08:52:32;11.97;;;6.87;;
41817;SDS011;27493;51.730;5.294;2023-03-20T08:54:57;16.07;;;6.97;;
41817;SDS011;27493;51.730;5.294;2023-03-20T08:57:22;14.97;;;7.17;;
41817;SDS011;27493;51.730;5.294;2023-03-20T08:59:48;19.37;;;6.83;;
41817;SDS011;27493;51.730;5.294;2023-03-20T09:02:13;17.27;;;7.53;;
41817;SDS011;27493;51.730;5.294;2023-03-20T09:04:38;12.83;;;6.67;;
41817;SDS011;27493;51.730;5.294;2023-03-20T09:07:03;17.47;;;7.30;;
41817;SDS011;27493;51.730;5.294;2023-03-20T09:09:28;20.73;;;7.30;;
41817;SDS011;27493;51.730;5.294;2023-03-20T09:11:55;12.47;;;6.50;;
41817;SDS011;27493;51.730;5.294;2023-03-20T09:14:21;15.10;;;6.40;;
41817;SDS011;27493;51.730;5.294;2023-03-20T09:16:46;13.73;;;6.83;;
41817;SDS011;27493;51.730;5.294;2023-03-20T09:19:11;19.07;;;6.80;;
41817;SDS011;27493;51.730;5.294;2023-03-20T09:21:36;13.97;;;6.60;;
41817;SDS011;27493;51.730;5.294;2023-03-20T09:24:02;16.10;;;6.20;;
41817;SDS011;27493;51.730;5.294;2023-03-20T09:26:27;15.00;;;6.20;;
41817;SDS011;27493;51.730;5.294;2023-03-20T09:28:52;14.97;;;6.77;;
41817;SDS011;27493;51.730;5.294;2023-03-20T09:31:17;14.20;;;6.43;;
41817;SDS011;27493;51.730;5.294;2023-03-20T09:33:42;18.47;;;6.63;;
41817;SDS011;27493;51.730;5.294;2023-03-20T09:36:08;15.70;;;6.43;;
41817;SDS011;27493;51.730;5.294;2023-03-20T09:38:35;14.63;;;5.97;;
41817;SDS011;27493;51.730;5.294;2023-03-20T09:41:01;13.63;;;5.97;;
41817;SDS011;27493;51.730;5.294;2023-03-20T09:43:34;16.67;;;6.30;;
41817;SDS011;27493;51.730;5.294;2023-03-20T09:46:18;15.50;;;6.27;;
41817;SDS011;27493;51.730;5.294;2023-03-20T09:53:47;13.10;;;6.23;;
41817;SDS011;27493;51.730;5.294;2023-03-20T09:56:15;16.83;;;6.77;;
41817;SDS011;27493;51.730;5.294;2023-03-20T09:58:42;14.50;;;6.67;;
41817;SDS011;27493;51.730;5.294;2023-03-20T10:01:09;16.57;;;6.80;;
41817;SDS011;27493;51.730;5.294;2023-03-20T10:03:47;14.40;;;6.67;;
41817;SDS011;27493;51.730;5.294;2023-03-20T10:06:14;17.23;;;7.20;;
41817;SDS011;27493;51.730;5.294;2023-03-20T10:08:40;22.00;;;8.13;;
41817;SDS011;27493;51.730;5.294;2023-03-20T10:16:24;17.37;;;6.33;;
41817;SDS011;27493;51.730;5.294;2023-03-20T10:18:55;20.07;;;6.30;;
41817;SDS011;27493;51.730;5.294;2023-03-20T10:21:26;11.10;;;5.83;;
41817;SDS011;27493;51.730;5.294;2023-03-20T10:24:00;17.13;;;6.53;;
41817;SDS011;27493;51.730;5.294;2023-03-20T10:26:26;19.87;;;7.37;;
41817;SDS011;27493;51.730;5.294;2023-03-20T10:33:52;13.67;;;6.57;;
41817;SDS011;27493;51.730;5.294;2023-03-20T10:38:51;12.40;;;6.93;;
41817;SDS011;27493;51.730;5.294;2023-03-20T10:41:21;20.53;;;7.63;;
41817;SDS011;27493;51.730;5.294;2023-03-20T10:43:48;14.10;;;6.70;;
41817;SDS011;27493;51.730;5.294;2023-03-20T10:46:15;13.63;;;7.83;;
41817;SDS011;27493;51.730;5.294;2023-03-20T10:48:49;12.50;;;6.83;;
41817;SDS011;27493;51.730;5.294;2023-03-20T10:51:17;14.70;;;7.27;;
41817;SDS011;27493;51.730;5.294;2023-03-20T10:53:47;19.37;;;7.20;;
41817;SDS011;27493;51.730;5.294;2023-03-20T10:56:26;14.37;;;6.03;;
41817;SDS011;27493;51.730;5.294;2023-03-20T10:59:06;14.20;;;5.80;;
41817;SDS011;27493;51.730;5.294;2023-03-20T11:01:32;12.63;;;6.10;;
41817;SDS011;27493;51.730;5.294;2023-03-20T11:03:57;19.77;;;6.30;;
41817;SDS011;27493;51.730;5.294;2023-03-20T11:06:27;12.13;;;5.63;;
41817;SDS011;27493;51.730;5.294;2023-03-20T11:08:56;16.50;;;6.40;;
41817;SDS011;27493;51.730;5.294;2023-03-20T11:11:23;13.63;;;5.93;;
41817;SDS011;27493;51.730;5.294;2023-03-20T11:13:48;15.70;;;6.00;;
41817;SDS011;27493;51.730;5.294;2023-03-20T11:16:24;18.17;;;6.13;;
41817;SDS011;27493;51.730;5.294;2023-03-20T11:18:50;9.90;;;5.67;;
41817;SDS011;27493;51.730;5.294;2023-03-20T11:21:26;15.93;;;6.17;;
41817;SDS011;27493;51.730;5.294;2023-03-20T11:23:52;14.50;;;6.30;;
41817;SDS011;27493;51.730;5.294;2023-03-20T11:26:19;18.33;;;6.30;;
41817;SDS011;27493;51.730;5.294;2023-03-20T11:28:51;14.83;;;6.20;;
41817;SDS011;27493;51.730;5.294;2023-03-20T11:31:25;16.53;;;6.13;;
41817;SDS011;27493;51.730;5.294;2023-03-20T11:36:38;17.77;;;6.27;;
41817;SDS011;27493;51.730;5.294;2023-03-20T11:41:30;11.60;;;6.23;;
41817;SDS011;27493;51.730;5.294;2023-03-20T11:43:55;16.20;;;6.73;;
41817;SDS011;27493;51.730;5.294;2023-03-20T11:46:21;12.67;;;6.23;;
41817;SDS011;27493;51.730;5.294;2023-03-20T11:51:52;16.90;;;7.10;;
41817;SDS011;27493;51.730;5.294;2023-03-20T11:54:18;16.13;;;6.30;;
41817;SDS011;27493;51.730;5.294;2023-03-20T11:56:50;16.20;;;6.50;;
41817;SDS011;27493;51.730;5.294;2023-03-20T11:59:16;19.17;;;6.50;;
41817;SDS011;27493;51.730;5.294;2023-03-20T12:01:43;18.60;;;6.90;;
41817;SDS011;27493;51.730;5.294;2023-03-20T12:04:18;15.07;;;6.53;;
41817;SDS011;27493;51.730;5.294;2023-03-20T12:06:54;16.00;;;6.30;;
41817;SDS011;27493;51.730;5.294;2023-03-20T12:12:07;19.80;;;6.37;;
41817;SDS011;27493;51.730;5.294;2023-03-20T12:19:40;14.80;;;5.90;;
41817;SDS011;27493;51.730;5.294;2023-03-20T12:22:11;11.17;;;5.87;;
41817;SDS011;27493;51.730;5.294;2023-03-20T12:24:40;13.07;;;5.97;;
41817;SDS011;27493;51.730;5.294;2023-03-20T12:29:42;13.97;;;6.40;;
41817;SDS011;27493;51.730;5.294;2023-03-20T12:32:14;19.80;;;6.97;;
41817;SDS011;27493;51.730;5.294;2023-03-20T12:34:44;15.07;;;6.60;;
41817;SDS011;27493;51.730;5.294;2023-03-20T12:37:11;16.07;;;6.73;;
41817;SDS011;27493;51.730;5.294;2023-03-20T12:39:38;13.90;;;6.00;;
41817;SDS011;27493;51.730;5.294;2023-03-20T12:52:11;15.37;;;7.37;;
41817;SDS011;27493;51.730;5.294;2023-03-20T12:59:47;15.70;;;6.87;;
41817;SDS011;27493;51.730;5.294;2023-03-20T13:03:19;21.73;;;7.20;;
41817;SDS011;27493;51.730;5.294;2023-03-20T13:05:20;16.37;;;6.53;;
41817;SDS011;27493;51.730;5.294;2023-03-20T13:10:35;11.53;;;6.33;;
41817;SDS011;27493;51.730;5.294;2023-03-20T13:18:57;14.07;;;5.90;;
41817;SDS011;27493;51.730;5.294;2023-03-20T13:21:38;14.40;;;5.67;;
41817;SDS011;27493;51.730;5.294;2023-03-20T13:24:27;14.93;;;6.20;;
41817;SDS011;27493;51.730;5.294;2023-03-20T13:32:05;13.73;;;5.30;;
41817;SDS011;27493;51.730;5.294;2023-03-20T13:34:43;18.27;;;5.63;;
41817;SDS011;27493;51.730;5.294;2023-03-20T13:37:18;13.07;;;5.93;;
41817;SDS011;27493;51.730;5.294;2023-03-20T13:39:47;22.33;;;5.83;;
41817;SDS011;27493;51.730;5.294;2023-03-20T13:42:13;15.87;;;6.03;;
41817;SDS011;27493;51.730;5.294;2023-03-20T13:44:40;15.30;;;5.50;;
41817;SDS011;27493;51.730;5.294;2023-03-20T13:47:14;10.77;;;5.33;;
41817;SDS011;27493;51.730;5.294;2023-03-20T13:49:58;12.43;;;5.37;;
41817;SDS011;27493;51.730;5.294;2023-03-20T13:52:28;18.60;;;5.93;;
41817;SDS011;27493;51.730;5.294;2023-03-20T13:55:06;11.50;;;5.00;;
41817;SDS011;27493;51.730;5.294;2023-03-20T14:00:23;11.50;;;5.07;;
41817;SDS011;27493;51.730;5.294;2023-03-20T14:05:25;15.83;;;5.93;;
41817;SDS011;27493;51.730;5.294;2023-03-20T14:07:56;18.07;;;5.60;;
41817;SDS011;27493;51.730;5.294;2023-03-20T14:12:47;9.43;;;5.90;;
41817;SDS011;27493;51.730;5.294;2023-03-20T14:15:13;11.87;;;5.43;;
41817;SDS011;27493;51.730;5.294;2023-03-20T14:17:42;14.90;;;6.17;;
41817;SDS011;27493;51.730;5.294;2023-03-20T14:20:09;12.80;;;6.53;;
41817;SDS011;27493;51.730;5.294;2023-03-20T14:22:37;15.73;;;5.90;;
41817;SDS011;27493;51.730;5.294;2023-03-20T14:25:14;15.27;;;6.40;;
41817;SDS011;27493;51.730;5.294;2023-03-20T14:35:27;16.27;;;7.00;;
41817;SDS011;27493;51.730;5.294;2023-03-20T14:40:18;15.33;;;7.97;;
41817;SDS011;27493;51.730;5.294;2023-03-20T14:45:42;16.07;;;6.30;;
41817;SDS011;27493;51.730;5.294;2023-03-20T14:53:19;19.03;;;6.50;;
41817;SDS011;27493;51.730;5.294;2023-03-20T15:00:59;16.43;;;7.27;;
41817;SDS011;27493;51.730;5.294;2023-03-20T15:03:27;16.27;;;6.37;;
41817;SDS011;27493;51.730;5.294;2023-03-20T15:05:55;19.17;;;6.67;;
41817;SDS011;27493;51.730;5.294;2023-03-20T15:08:24;14.80;;;6.10;;
41817;SDS011;27493;51.730;5.294;2023-03-20T15:10:53;11.87;;;6.17;;
41817;SDS011;27493;51.730;5.294;2023-03-20T15:13:19;19.23;;;6.60;;
41817;SDS011;27493;51.730;5.294;2023-03-20T15:18:49;19.43;;;7.03;;
41817;SDS011;27493;51.730;5.294;2023-03-20T15:21:19;18.27;;;6.90;;
41817;SDS011;27493;51.730;5.294;2023-03-20T15:23:45;23.90;;;7.00;;
41817;SDS011;27493;51.730;5.294;2023-03-20T15:26:13;17.57;;;7.00;;
41817;SDS011;27493;51.730;5.294;2023-03-20T15:28:38;17.83;;;6.83;;
41817;SDS011;27493;51.730;5.294;2023-03-20T15:31:04;19.53;;;6.57;;
41817;SDS011;27493;51.730;5.294;2023-03-20T15:33:34;17.13;;;6.97;;
41817;SDS011;27493;51.730;5.294;2023-03-20T15:36:07;12.67;;;5.63;;
41817;SDS011;27493;51.730;5.294;2023-03-20T15:38:33;14.60;;;5.73;;
41817;SDS011;27493;51.730;5.294;2023-03-20T15:40:59;18.30;;;5.87;;
41817;SDS011;27493;51.730;5.294;2023-03-20T15:43:27;15.57;;;6.23;;
41817;SDS011;27493;51.730;5.294;2023-03-20T15:45:53;14.93;;;6.03;;
41817;SDS011;27493;51.730;5.294;2023-03-20T15:48:21;11.07;;;6.13;;
41817;SDS011;27493;51.730;5.294;2023-03-20T15:50:53;11.93;;;5.27;;
41817;SDS011;27493;51.730;5.294;2023-03-20T15:53:22;15.40;;;5.43;;
41817;SDS011;27493;51.730;5.294;2023-03-20T15:55:51;13.20;;;5.30;;
41817;SDS011;27493;51.730;5.294;2023-03-20T15:58:17;13.70;;;5.97;;
41817;SDS011;27493;51.730;5.294;2023-03-20T16:00:43;18.03;;;6.90;;
41817;SDS011;27493;51.730;5.294;2023-03-20T16:03:11;15.03;;;5.80;;
41817;SDS011;27493;51.730;5.294;2023-03-20T16:05:37;12.67;;;5.77;;
41817;SDS011;27493;51.730;5.294;2023-03-20T16:08:13;19.37;;;5.97;;
41817;SDS011;27493;51.730;5.294;2023-03-20T16:10:40;16.20;;;6.00;;
41817;SDS011;27493;51.730;5.294;2023-03-20T16:13:06;16.53;;;6.33;;
41817;SDS011;27493;51.730;5.294;2023-03-20T16:15:31;14.33;;;6.10;;
41817;SDS011;27493;51.730;5.294;2023-03-20T16:17:57;16.70;;;6.57;;
41817;SDS011;27493;51.730;5.294;2023-03-20T16:20:23;15.20;;;6.00;;
41817;SDS011;27493;51.730;5.294;2023-03-20T16:22:51;13.63;;;6.30;;
41817;SDS011;27493;51.730;5.294;2023-03-20T16:25:17;14.80;;;6.17;;
41817;SDS011;27493;51.730;5.294;2023-03-20T16:27:44;16.00;;;6.93;;
41817;SDS011;27493;51.730;5.294;2023-03-20T16:30:52;14.93;;;6.60;;
41817;SDS011;27493;51.730;5.294;2023-03-20T16:33:00;14.10;;;6.33;;
41817;SDS011;27493;51.730;5.294;2023-03-20T16:35:35;14.37;;;6.57;;
41817;SDS011;27493;51.730;5.294;2023-03-20T16:38:01;17.93;;;7.03;;
41817;SDS011;27493;51.730;5.294;2023-03-20T16:40:37;13.37;;;6.00;;
41817;SDS011;27493;51.730;5.294;2023-03-20T16:43:11;16.93;;;6.67;;
41817;SDS011;27493;51.730;5.294;2023-03-20T16:45:36;26.53;;;7.53;;
41817;SDS011;27493;51.730;5.294;2023-03-20T16:59:55;17.23;;;7.20;;
41817;SDS011;27493;51.730;5.294;2023-03-20T17:02:29;24.70;;;9.00;;
41817;SDS011;27493;51.730;5.294;2023-03-20T17:04:55;30.50;;;13.97;;
41817;SDS011;27493;51.730;5.294;2023-03-20T17:07:21;22.30;;;9.27;;
41817;SDS011;27493;51.730;5.294;2023-03-20T17:09:59;23.83;;;10.27;;